createdAt,value
2023-04-30T00:01:20.537Z,4.40
2023-04-30T00:03:47.910Z,4.60
2023-04-30T00:06:16.092Z,4.32
2023-04-30T00:08:43.393Z,4.30
2023-04-30T00:11:10.644Z,4.45
2023-04-30T00:13:37.918Z,4.07
2023-04-30T00:16:05.734Z,4.93
2023-04-30T00:18:32.990Z,5.57
2023-04-30T00:21:00.399Z,5.05
2023-04-30T00:23:27.715Z,4.97
2023-04-30T00:25:54.948Z,4.32
2023-04-30T00:28:22.202Z,6.80
2023-04-30T00:30:49.503Z,4.18
2023-04-30T00:33:16.787Z,5.40
2023-04-30T00:35:44.029Z,4.85
2023-04-30T00:38:11.424Z,4.63
2023-04-30T00:40:40.438Z,5.00
2023-04-30T00:43:07.725Z,5.38
2023-04-30T00:45:35.058Z,4.70
2023-04-30T00:48:02.958Z,5.40
2023-04-30T00:50:30.641Z,4.82
2023-04-30T00:52:59.643Z,5.30
2023-04-30T00:55:27.129Z,4.57
2023-04-30T00:57:55.214Z,4.82
2023-04-30T01:00:22.905Z,5.13
2023-04-30T01:02:50.409Z,4.90
2023-04-30T01:05:17.779Z,5.10
2023-04-30T01:07:46.366Z,4.43
2023-04-30T01:10:15.668Z,5.10
2023-04-30T01:13:01.934Z,4.88
2023-04-30T01:15:37.672Z,5.88
2023-04-30T01:18:12.718Z,4.90
2023-04-30T01:20:54.652Z,5.53
2023-04-30T01:23:25.173Z,5.28
2023-04-30T01:26:15.384Z,5.53
2023-04-30T01:28:46.049Z,5.55
2023-04-30T01:31:19.573Z,5.20
2023-04-30T01:33:47.055Z,4.97
2023-04-30T01:36:52.160Z,5.32
2023-04-30T01:39:41.145Z,5.10
2023-04-30T01:42:16.487Z,5.50
2023-04-30T01:45:05.756Z,5.10
2023-04-30T01:47:42.391Z,5.72
2023-04-30T01:50:37.699Z,5.63
2023-04-30T01:55:50.895Z,6.03
2023-04-30T01:58:20.389Z,5.43
2023-04-30T02:00:47.708Z,6.68
2023-04-30T02:03:15.089Z,5.88
2023-04-30T02:05:42.560Z,5.57
2023-04-30T02:08:09.829Z,5.80
2023-04-30T02:10:37.153Z,5.90
2023-04-30T02:13:04.761Z,6.43
2023-04-30T02:15:32.085Z,6.30
2023-04-30T02:17:59.430Z,6.93
2023-04-30T02:20:26.825Z,5.80
2023-04-30T02:22:54.251Z,5.78
2023-04-30T02:25:21.485Z,7.18
2023-04-30T02:27:50.566Z,6.00
2023-04-30T02:30:19.770Z,6.78
2023-04-30T02:32:47.988Z,6.47
2023-04-30T02:35:15.574Z,6.07
2023-04-30T02:37:43.023Z,6.03
2023-04-30T02:40:10.843Z,6.30
2023-04-30T02:42:38.635Z,6.10
2023-04-30T02:45:06.466Z,6.22
2023-04-30T02:47:33.835Z,6.60
2023-04-30T02:50:01.186Z,6.85
2023-04-30T02:52:28.480Z,6.20
2023-04-30T02:54:55.741Z,6.85
2023-04-30T02:57:23.016Z,6.47
2023-04-30T02:59:50.341Z,6.60
2023-04-30T03:02:21.492Z,5.90
2023-04-30T03:04:49.647Z,7.00
2023-04-30T03:07:16.969Z,6.57
2023-04-30T03:09:44.706Z,6.88
2023-04-30T03:12:11.962Z,6.30
2023-04-30T03:14:39.232Z,6.50
2023-04-30T03:17:06.984Z,6.30
2023-04-30T03:19:34.306Z,6.90
2023-04-30T03:22:01.616Z,6.47
2023-04-30T03:24:28.958Z,6.55
2023-04-30T03:26:56.671Z,6.57
2023-04-30T03:29:23.958Z,6.25
2023-04-30T03:31:51.444Z,6.15
2023-04-30T03:34:18.801Z,6.95
2023-04-30T03:36:46.108Z,6.90
2023-04-30T03:39:13.402Z,6.45
2023-04-30T03:41:40.652Z,6.20
2023-04-30T03:44:14.888Z,6.32
2023-04-30T03:46:45.490Z,6.68
2023-04-30T03:49:12.832Z,6.22
2023-04-30T03:51:41.932Z,6.57
2023-04-30T03:54:09.864Z,6.50
2023-04-30T03:56:37.488Z,6.45
2023-04-30T03:59:05.685Z,6.85
2023-04-30T04:01:33.221Z,6.60
2023-04-30T04:04:01.452Z,6.70
2023-04-30T04:06:28.814Z,6.47
2023-04-30T04:08:56.133Z,7.13
2023-04-30T04:11:23.565Z,7.03
2023-04-30T04:13:50.939Z,6.88
2023-04-30T04:16:18.261Z,6.10
2023-04-30T04:18:45.729Z,7.45
2023-04-30T04:21:13.150Z,6.50
2023-04-30T04:23:40.476Z,6.68
2023-04-30T04:26:07.851Z,6.68
2023-04-30T04:28:35.129Z,6.43
2023-04-30T04:31:03.248Z,6.40
2023-04-30T04:33:31.058Z,6.63
2023-04-30T04:35:58.326Z,6.70
2023-04-30T04:38:25.876Z,6.43
2023-04-30T04:40:56.656Z,7.03
2023-04-30T04:43:23.997Z,6.68
2023-04-30T04:45:52.341Z,6.40
2023-04-30T04:48:19.782Z,5.97
2023-04-30T04:50:47.229Z,6.50
2023-04-30T04:53:14.589Z,6.25
2023-04-30T04:55:41.842Z,6.28
2023-04-30T04:58:09.096Z,6.10
2023-04-30T05:00:36.444Z,7.28
2023-04-30T05:03:03.821Z,6.13
2023-04-30T05:05:31.142Z,6.78
2023-04-30T05:07:58.391Z,5.82
2023-04-30T05:10:25.781Z,5.90
2023-04-30T05:12:53.088Z,6.05
2023-04-30T05:15:20.588Z,6.25
2023-04-30T05:17:47.907Z,6.07
2023-04-30T05:20:15.253Z,6.40
2023-04-30T05:22:42.491Z,5.45
2023-04-30T05:25:10.092Z,5.80
2023-04-30T05:27:37.558Z,6.53
2023-04-30T05:30:05.201Z,5.65
2023-04-30T05:32:32.475Z,5.20
2023-04-30T05:34:59.784Z,5.93
2023-04-30T05:37:27.152Z,5.57
2023-04-30T05:39:54.713Z,5.18
2023-04-30T05:42:22.252Z,5.35
2023-04-30T05:44:49.938Z,5.00
2023-04-30T05:47:17.294Z,5.20
2023-04-30T05:49:44.612Z,5.13
2023-04-30T05:52:12.022Z,4.75
2023-04-30T05:54:39.275Z,4.55
2023-04-30T05:57:06.599Z,5.05
2023-04-30T05:59:33.921Z,4.30
2023-04-30T06:02:01.260Z,4.40
2023-04-30T06:04:28.640Z,4.50
2023-04-30T06:06:55.891Z,4.72
2023-04-30T06:09:23.188Z,4.38
2023-04-30T06:11:52.050Z,4.43
2023-04-30T06:14:20.167Z,4.35
2023-04-30T06:16:47.621Z,3.95
2023-04-30T06:19:15.024Z,4.40
2023-04-30T06:21:44.024Z,4.30
2023-04-30T06:24:11.388Z,4.25
2023-04-30T06:26:39.083Z,3.83
2023-04-30T06:29:06.531Z,4.70
2023-04-30T06:31:34.063Z,3.78
2023-04-30T06:34:01.490Z,4.00
2023-04-30T06:36:28.723Z,3.85
2023-04-30T06:38:56.274Z,3.60
2023-04-30T06:41:23.616Z,4.45
2023-04-30T06:43:50.986Z,4.93
2023-04-30T06:46:18.434Z,4.22
2023-04-30T06:48:45.770Z,3.60
2023-04-30T06:51:13.016Z,3.30
2023-04-30T06:53:40.424Z,3.75
2023-04-30T06:56:07.970Z,3.33
2023-04-30T06:58:35.262Z,3.40
2023-04-30T07:01:03.379Z,3.58
2023-04-30T07:03:30.907Z,3.38
2023-04-30T07:05:58.505Z,3.70
2023-04-30T07:08:25.814Z,3.28
2023-04-30T07:10:53.124Z,3.67
2023-04-30T07:13:20.403Z,3.33
2023-04-30T07:15:47.718Z,3.75
2023-04-30T07:18:16.263Z,3.50
2023-04-30T07:20:43.543Z,3.67
2023-04-30T07:23:10.818Z,3.55
2023-04-30T07:25:39.137Z,3.40
2023-04-30T07:28:06.416Z,3.30
2023-04-30T07:30:33.750Z,3.13
2023-04-30T07:33:01.064Z,3.55
2023-04-30T07:35:28.400Z,3.22
2023-04-30T07:37:56.584Z,3.30
2023-04-30T07:40:34.804Z,3.33
2023-04-30T07:43:02.716Z,3.17
2023-04-30T07:45:30.034Z,3.38
2023-04-30T07:47:57.401Z,3.50
2023-04-30T07:50:24.756Z,3.30
2023-04-30T07:52:52.061Z,3.88
2023-04-30T07:55:19.435Z,3.70
2023-04-30T07:57:46.816Z,3.97
2023-04-30T08:00:15.151Z,4.10
2023-04-30T08:02:45.638Z,4.30
2023-04-30T08:05:13.163Z,4.47
2023-04-30T08:07:41.398Z,5.43
2023-04-30T08:10:08.930Z,5.18
2023-04-30T08:12:39.564Z,4.60
2023-04-30T08:15:10.367Z,5.03
2023-04-30T08:17:37.740Z,4.72
2023-04-30T08:20:06.367Z,4.53
2023-04-30T08:22:33.898Z,4.93
2023-04-30T08:25:01.971Z,5.05
2023-04-30T08:27:30.981Z,5.47
2023-04-30T08:29:58.431Z,5.72
2023-04-30T08:32:25.907Z,5.47
2023-04-30T08:34:54.250Z,5.57
2023-04-30T08:37:21.953Z,5.80
2023-04-30T08:39:49.353Z,6.32
2023-04-30T08:42:19.135Z,5.72
2023-04-30T08:44:47.151Z,6.32
2023-04-30T08:47:14.653Z,6.03
2023-04-30T08:49:43.322Z,7.57
2023-04-30T08:52:11.237Z,7.78
2023-04-30T08:54:38.737Z,7.18
2023-04-30T08:57:06.640Z,7.75
2023-04-30T08:59:34.006Z,7.82
2023-04-30T09:02:02.279Z,7.07
2023-04-30T09:04:29.788Z,8.00
2023-04-30T09:07:02.322Z,8.65
2023-04-30T09:09:37.579Z,9.15
2023-04-30T09:12:19.721Z,10.68
2023-04-30T09:14:59.519Z,10.45
2023-04-30T09:17:26.814Z,10.55
2023-04-30T09:19:54.624Z,11.10
2023-04-30T09:22:25.365Z,9.00
2023-04-30T09:24:53.483Z,8.48
2023-04-30T09:27:23.191Z,11.13
2023-04-30T09:29:50.932Z,9.43
2023-04-30T09:32:18.474Z,10.70
2023-04-30T09:34:45.808Z,12.25
2023-04-30T09:37:13.421Z,12.18
2023-04-30T09:39:51.183Z,11.93
2023-04-30T09:42:19.802Z,10.65
2023-04-30T09:44:48.087Z,10.85
2023-04-30T09:47:17.755Z,13.57
2023-04-30T09:49:51.686Z,14.63
2023-04-30T09:52:19.884Z,15.02
2023-04-30T09:54:47.853Z,13.27
2023-04-30T09:57:16.695Z,15.70
2023-04-30T09:59:48.813Z,14.30
2023-04-30T10:02:17.329Z,13.07
2023-04-30T10:04:48.964Z,13.75
2023-04-30T10:07:22.280Z,12.50
2023-04-30T10:10:05.264Z,12.43
2023-04-30T10:12:44.443Z,13.07
2023-04-30T10:15:21.153Z,12.18
2023-04-30T10:17:53.003Z,11.52
2023-04-30T10:20:22.019Z,11.73
2023-04-30T10:22:49.556Z,10.88
2023-04-30T10:25:18.479Z,9.38
2023-04-30T10:27:46.648Z,8.52
2023-04-30T10:30:14.424Z,8.40
2023-04-30T10:33:15.749Z,7.57
2023-04-30T10:36:04.361Z,8.18
2023-04-30T10:38:32.977Z,8.85
2023-04-30T10:41:01.561Z,8.57
2023-04-30T10:43:31.590Z,8.02
2023-04-30T10:45:59.611Z,8.00
2023-04-30T10:48:27.515Z,8.77
2023-04-30T10:51:01.244Z,9.00
2023-04-30T10:53:31.985Z,7.22
2023-04-30T10:56:00.416Z,8.63
2023-04-30T10:58:31.458Z,7.95
2023-04-30T11:01:13.803Z,7.15
2023-04-30T11:03:43.220Z,7.80
2023-04-30T11:06:15.054Z,8.07
2023-04-30T11:08:46.686Z,7.00
2023-04-30T11:11:21.278Z,6.90
2023-04-30T11:13:59.401Z,7.82
2023-04-30T11:16:35.290Z,7.38
2023-04-30T11:19:13.960Z,7.13
2023-04-30T11:21:42.328Z,6.85
2023-04-30T11:24:09.676Z,7.10
2023-04-30T11:27:03.879Z,7.53
2023-04-30T11:29:31.943Z,6.93
2023-04-30T11:32:01.807Z,7.70
2023-04-30T11:34:30.785Z,7.10
2023-04-30T11:37:01.499Z,6.05
2023-04-30T11:39:29.755Z,7.75
2023-04-30T11:41:58.004Z,7.22
2023-04-30T11:44:28.472Z,6.90
2023-04-30T11:46:55.923Z,7.28
2023-04-30T11:49:23.738Z,6.88
2023-04-30T11:51:51.851Z,7.78
2023-04-30T11:54:19.847Z,7.32
2023-04-30T11:56:51.034Z,7.40
2023-04-30T11:59:20.540Z,7.88
2023-04-30T12:01:48.487Z,8.02
2023-04-30T12:04:16.711Z,9.85
2023-04-30T12:06:44.231Z,7.32
2023-04-30T12:09:12.034Z,7.18
2023-04-30T12:11:39.831Z,6.90
2023-04-30T12:14:10.598Z,8.02
2023-04-30T12:16:50.452Z,7.53
2023-04-30T12:19:18.892Z,7.80
2023-04-30T12:21:48.469Z,6.72
2023-04-30T12:24:17.688Z,8.05
2023-04-30T12:26:45.723Z,7.35
2023-04-30T12:29:18.836Z,7.93
2023-04-30T12:31:49.699Z,8.00
2023-04-30T12:34:18.563Z,8.10
2023-04-30T12:36:46.084Z,6.60
2023-04-30T12:39:16.185Z,6.72
2023-04-30T12:41:46.151Z,7.47
2023-04-30T12:44:19.317Z,7.40
2023-04-30T12:46:49.022Z,8.20
2023-04-30T12:49:30.876Z,7.07
2023-04-30T12:52:09.590Z,7.78
2023-04-30T12:54:38.142Z,8.15
2023-04-30T12:57:11.990Z,7.80
2023-04-30T12:59:51.845Z,7.40
2023-04-30T13:02:22.536Z,8.05
2023-04-30T13:04:51.061Z,7.82
2023-04-30T13:07:18.449Z,9.13
2023-04-30T13:09:46.005Z,8.32
2023-04-30T13:12:13.292Z,8.57
2023-04-30T13:14:40.650Z,9.32
2023-04-30T13:17:09.816Z,9.23
2023-04-30T13:19:37.209Z,9.20
2023-04-30T13:22:04.525Z,8.85
2023-04-30T13:24:31.996Z,9.00
2023-04-30T13:26:59.395Z,9.55
2023-04-30T13:29:26.832Z,9.85
2023-04-30T13:31:54.173Z,10.93
2023-04-30T13:34:21.751Z,10.45
2023-04-30T13:36:49.041Z,10.38
2023-04-30T13:39:16.363Z,11.02
2023-04-30T13:41:43.744Z,9.93
2023-04-30T13:44:11.427Z,10.93
2023-04-30T13:46:38.710Z,11.02
2023-04-30T13:49:06.255Z,9.90
2023-04-30T13:51:33.581Z,10.57
2023-04-30T13:54:00.860Z,9.55
2023-04-30T13:56:28.232Z,10.80
2023-04-30T13:58:55.516Z,9.25
2023-04-30T14:01:22.924Z,9.10
2023-04-30T14:03:50.487Z,10.00
2023-04-30T14:06:18.011Z,9.43
2023-04-30T14:08:45.453Z,8.57
2023-04-30T14:11:12.671Z,8.88
2023-04-30T14:13:39.909Z,9.70
2023-04-30T14:16:07.415Z,8.68
2023-04-30T14:18:34.706Z,8.88
2023-04-30T14:21:01.966Z,8.00
2023-04-30T14:23:29.336Z,9.35
2023-04-30T14:25:56.923Z,8.40
2023-04-30T14:28:24.823Z,8.93
2023-04-30T14:30:52.104Z,9.63
2023-04-30T14:33:19.435Z,8.63
2023-04-30T14:35:47.472Z,8.43
2023-04-30T14:38:15.491Z,8.15
2023-04-30T14:40:44.939Z,8.27
2023-04-30T14:43:12.192Z,8.98
2023-04-30T14:45:40.188Z,9.57
2023-04-30T14:48:07.861Z,8.93
2023-04-30T14:50:35.235Z,9.70
2023-04-30T14:53:03.130Z,8.90
2023-04-30T14:55:30.953Z,9.30
2023-04-30T14:58:00.998Z,8.13
2023-04-30T15:00:29.663Z,8.88
2023-04-30T15:02:56.994Z,9.05
2023-04-30T15:05:24.442Z,8.02
2023-04-30T15:07:52.062Z,8.65
2023-04-30T15:10:19.506Z,9.70
2023-04-30T15:12:46.811Z,9.02
2023-04-30T15:15:14.233Z,9.85
2023-04-30T15:17:41.684Z,9.23
2023-04-30T15:20:09.372Z,9.40
2023-04-30T15:22:36.640Z,8.63
2023-04-30T15:25:05.098Z,8.63
2023-04-30T15:27:33.902Z,9.18
2023-04-30T15:30:01.379Z,9.50
2023-04-30T15:32:28.693Z,9.75
2023-04-30T15:34:55.971Z,9.70
2023-04-30T15:37:23.259Z,9.95
2023-04-30T15:39:50.553Z,8.70
2023-04-30T15:42:17.838Z,9.02
2023-04-30T15:44:45.111Z,9.23
2023-04-30T15:47:12.709Z,10.43
2023-04-30T15:49:40.017Z,11.15
2023-04-30T15:52:07.305Z,10.73
2023-04-30T15:54:34.623Z,9.13
2023-04-30T15:57:03.998Z,9.85
2023-04-30T15:59:31.279Z,10.20
2023-04-30T16:01:58.565Z,9.52
2023-04-30T16:04:26.267Z,10.32
2023-04-30T16:06:53.892Z,10.32
2023-04-30T16:09:21.464Z,11.68
2023-04-30T16:11:49.260Z,10.45
2023-04-30T16:14:16.646Z,10.40
2023-04-30T16:16:44.029Z,9.88
2023-04-30T16:19:12.487Z,10.85
2023-04-30T16:21:40.180Z,11.55
2023-04-30T16:24:08.805Z,10.23
2023-04-30T16:26:36.561Z,9.75
2023-04-30T16:29:04.599Z,9.93
2023-04-30T16:31:32.478Z,11.02
2023-04-30T16:33:59.786Z,9.98
2023-04-30T16:36:28.030Z,10.45
2023-04-30T16:38:55.405Z,10.75
2023-04-30T16:41:22.747Z,10.95
2023-04-30T16:43:50.032Z,11.50
2023-04-30T16:46:17.343Z,10.90
2023-04-30T16:48:44.836Z,10.43
2023-04-30T16:51:12.171Z,10.85
2023-04-30T16:53:39.562Z,10.57
2023-04-30T16:56:07.069Z,11.35
2023-04-30T16:58:34.762Z,11.55
2023-04-30T17:01:02.091Z,10.98
2023-04-30T17:03:30.678Z,11.85
2023-04-30T17:05:58.169Z,11.65
2023-04-30T17:08:26.065Z,12.20
2023-04-30T17:10:53.357Z,11.77
2023-04-30T17:13:20.579Z,12.68
2023-04-30T17:15:48.748Z,11.90
2023-04-30T17:18:16.171Z,12.90
2023-04-30T17:20:45.650Z,12.00
2023-04-30T17:23:12.920Z,12.07
2023-04-30T17:25:40.216Z,11.65
2023-04-30T17:28:07.530Z,12.63
2023-04-30T17:30:36.005Z,10.85
2023-04-30T17:33:04.437Z,11.13
2023-04-30T17:35:31.814Z,11.52
2023-04-30T17:37:59.435Z,10.43
2023-04-30T17:40:26.930Z,11.18
2023-04-30T17:42:54.523Z,11.65
2023-04-30T17:45:21.806Z,12.38
2023-04-30T17:47:49.284Z,12.10
2023-04-30T17:50:16.656Z,12.75
2023-04-30T17:52:43.921Z,13.55
2023-04-30T17:55:11.769Z,12.15
2023-04-30T17:57:39.115Z,13.38
2023-04-30T18:00:07.188Z,12.55
2023-04-30T18:02:34.531Z,11.88
2023-04-30T18:05:01.978Z,11.65
2023-04-30T18:07:29.266Z,12.05
2023-04-30T18:09:57.001Z,11.50
2023-04-30T18:12:25.608Z,11.70
2023-04-30T18:14:53.042Z,12.38
2023-04-30T18:17:20.357Z,11.60
2023-04-30T18:19:49.172Z,11.45
2023-04-30T18:22:16.568Z,10.77
2023-04-30T18:24:43.811Z,11.48
2023-04-30T18:27:11.171Z,11.18
2023-04-30T18:29:38.449Z,10.10
2023-04-30T18:32:06.208Z,11.23
2023-04-30T18:34:33.551Z,10.32
2023-04-30T18:37:00.788Z,10.95
2023-04-30T18:39:28.167Z,10.10
2023-04-30T18:41:55.889Z,10.13
2023-04-30T18:44:31.757Z,11.23
2023-04-30T18:46:59.101Z,10.57
2023-04-30T18:49:26.760Z,10.65
2023-04-30T18:51:55.276Z,10.10
2023-04-30T18:54:23.756Z,10.57
2023-04-30T18:56:51.371Z,10.25
2023-04-30T18:59:19.294Z,10.00
2023-04-30T19:01:46.643Z,9.85
2023-04-30T19:04:15.898Z,9.05
2023-04-30T19:06:44.592Z,9.20
2023-04-30T19:09:13.391Z,9.68
2023-04-30T19:11:41.200Z,9.38
2023-04-30T19:14:08.515Z,8.75
2023-04-30T19:16:35.822Z,8.95
2023-04-30T19:19:03.886Z,8.15
2023-04-30T19:21:32.436Z,6.88
2023-04-30T19:23:59.923Z,7.28
2023-04-30T19:26:27.899Z,7.28
2023-04-30T19:28:55.269Z,7.70
2023-04-30T19:31:23.184Z,6.95
2023-04-30T19:33:50.504Z,6.70
2023-04-30T19:36:17.929Z,6.53
2023-04-30T19:38:45.310Z,7.18
2023-04-30T19:41:12.625Z,5.88
2023-04-30T19:43:39.991Z,7.18
2023-04-30T19:46:07.732Z,5.90
2023-04-30T19:48:35.093Z,5.97
2023-04-30T19:51:05.048Z,5.47
2023-04-30T19:53:32.464Z,6.35
2023-04-30T19:55:59.903Z,6.03
2023-04-30T19:58:27.246Z,5.50
2023-04-30T20:00:55.855Z,6.18
2023-04-30T20:03:25.214Z,5.25
2023-04-30T20:05:52.710Z,5.93
2023-04-30T20:08:20.071Z,5.68
2023-04-30T20:10:49.072Z,5.60
2023-04-30T20:13:17.247Z,5.35
2023-04-30T20:15:44.591Z,6.13
2023-04-30T20:18:12.781Z,5.05
2023-04-30T20:20:41.508Z,5.57
2023-04-30T20:23:17.011Z,5.65
2023-04-30T20:25:45.952Z,5.93
2023-04-30T20:28:14.928Z,5.38
2023-04-30T20:30:43.781Z,5.82
2023-04-30T20:33:12.581Z,5.07
2023-04-30T20:35:41.579Z,5.25
2023-04-30T20:38:09.317Z,5.53
2023-04-30T20:40:40.048Z,5.60
2023-04-30T20:43:11.745Z,4.88
2023-04-30T20:45:40.091Z,5.20
2023-04-30T20:48:08.615Z,9.85
2023-04-30T20:50:37.181Z,6.85
2023-04-30T20:53:04.807Z,6.47
2023-04-30T20:55:32.169Z,6.43
2023-04-30T20:57:59.538Z,7.63
2023-04-30T21:00:27.922Z,5.95
2023-04-30T21:02:55.570Z,8.30
2023-04-30T21:05:23.010Z,7.40
2023-04-30T21:07:50.306Z,6.65
2023-04-30T21:10:17.637Z,6.70
2023-04-30T21:12:44.946Z,6.28
2023-04-30T21:15:12.986Z,8.52
2023-04-30T21:17:40.386Z,6.00
2023-04-30T21:20:08.472Z,5.30
2023-04-30T21:22:36.011Z,6.35
2023-04-30T21:25:03.434Z,5.13
2023-04-30T21:27:30.751Z,6.35
2023-04-30T21:29:58.271Z,6.50
2023-04-30T21:32:25.700Z,6.15
2023-04-30T21:34:52.967Z,6.50
2023-04-30T21:37:20.373Z,11.05
2023-04-30T21:39:47.624Z,5.82
2023-04-30T21:42:14.923Z,5.22
2023-04-30T21:44:42.234Z,5.30
2023-04-30T21:47:10.532Z,5.13
2023-04-30T21:49:37.989Z,5.97
2023-04-30T21:52:08.196Z,5.65
2023-04-30T21:54:35.560Z,5.85
2023-04-30T21:57:02.954Z,4.78
2023-04-30T21:59:30.326Z,6.00
2023-04-30T22:01:58.322Z,6.97
2023-04-30T22:04:26.302Z,5.38
2023-04-30T22:06:53.957Z,5.25
2023-04-30T22:09:21.522Z,4.47
2023-04-30T22:11:49.659Z,4.80
2023-04-30T22:14:17.209Z,7.13
2023-04-30T22:16:44.599Z,6.05
2023-04-30T22:19:11.888Z,4.88
2023-04-30T22:21:39.252Z,5.10
2023-04-30T22:24:06.947Z,4.75
2023-04-30T22:26:34.241Z,4.78
2023-04-30T22:29:01.567Z,5.13
2023-04-30T22:31:29.220Z,4.47
2023-04-30T22:33:56.590Z,4.97
2023-04-30T22:36:23.867Z,4.60
2023-04-30T22:38:51.200Z,5.40
2023-04-30T22:41:18.615Z,4.30
2023-04-30T22:43:49.666Z,4.25
2023-04-30T22:46:17.706Z,3.67
2023-04-30T22:48:44.998Z,5.90
2023-04-30T22:51:12.400Z,4.82
2023-04-30T22:53:39.726Z,4.38
2023-04-30T22:56:07.332Z,4.70
2023-04-30T22:58:34.597Z,4.07
2023-04-30T23:01:01.905Z,4.30
2023-04-30T23:03:29.212Z,4.95
2023-04-30T23:05:59.595Z,4.93
2023-04-30T23:08:26.905Z,4.97
2023-04-30T23:10:55.652Z,5.20
2023-04-30T23:13:23.052Z,4.13
2023-04-30T23:15:50.337Z,3.63
2023-04-30T23:18:19.639Z,4.57
2023-04-30T23:20:47.562Z,3.90
2023-04-30T23:23:14.952Z,4.75
2023-04-30T23:25:42.401Z,4.38
2023-04-30T23:28:09.672Z,3.58
2023-04-30T23:30:39.845Z,4.18
2023-04-30T23:33:07.282Z,4.18
2023-04-30T23:35:34.587Z,3.67
2023-04-30T23:38:01.838Z,3.38
2023-04-30T23:40:29.245Z,3.08
2023-04-30T23:42:56.600Z,3.30
2023-04-30T23:45:24.182Z,4.07
2023-04-30T23:47:51.957Z,3.33
2023-04-30T23:50:19.336Z,2.80
2023-04-30T23:52:46.697Z,3.30
2023-04-30T23:55:14.609Z,3.15
2023-04-30T23:57:42.630Z,4.00
